Time;durP1;ratioP1;P1;durP2;ratioP2;P2;SDS_P1;SDS_P2;PMS_P1;PMS_P2;Temp;Humidity;BMP_temperature;BMP_pressure;BME280_temperature;BME280_humidity;BME280_pressure;Samples;Min_cycle;Max_cycle;Signal;HPM_P1;HPM_P2
2024/02/22 00:01:35;;;;;;;60.40;43.00;;;;;;;1.38;100.00;98567.13;109079;1256;64762;-76
2024/02/22 00:04:02;;;;;;;58.70;41.70;;;;;;;1.43;100.00;98564.83;109068;1258;59855;-76
2024/02/22 00:06:29;;;;;;;49.10;38.40;;;;;;;1.46;100.00;98558.42;109047;1256;59698;-76
2024/02/22 00:08:56;;;;;;;56.30;41.00;;;;;;;1.47;100.00;98557.15;109079;1256;67891;-76
2024/02/22 00:11:22;;;;;;;52.80;39.50;;;;;;;1.50;100.00;98554.44;108981;1256;59925;-76
2024/02/22 00:13:49;;;;;;;53.90;39.40;;;;;;;1.49;100.00;98551.30;109082;1256;63638;-76
2024/02/22 00:16:16;;;;;;;51.20;39.10;;;;;;;1.47;100.00;98548.07;109075;1256;59810;-76
2024/02/22 00:18:42;;;;;;;59.50;42.80;;;;;;;1.47;100.00;98547.35;109124;1256;59995;-77
2024/02/22 00:21:09;;;;;;;59.90;45.70;;;;;;;1.48;100.00;98547.33;109089;1256;66754;-77
2024/02/22 00:23:35;;;;;;;56.00;43.90;;;;;;;1.48;100.00;98545.73;109112;1256;59954;-77
2024/02/22 00:26:02;;;;;;;54.30;41.40;;;;;;;1.49;100.00;98544.14;109062;1256;64762;-74
2024/02/22 00:28:28;;;;;;;55.40;42.90;;;;;;;1.48;100.00;98536.66;109093;1256;59893;-76
2024/02/22 00:30:55;;;;;;;60.90;46.30;;;;;;;1.47;100.00;98538.09;109100;1256;59813;-76
2024/02/22 00:33:22;;;;;;;60.70;48.50;;;;;;;1.45;100.00;98534.65;109079;1256;67852;-76
2024/02/22 00:35:48;;;;;;;60.60;47.40;;;;;;;1.46;100.00;98529.20;109109;1256;60299;-76
2024/02/22 00:38:15;;;;;;;68.80;51.40;;;;;;;1.47;100.00;98524.26;109074;1256;65046;-76
2024/02/22 00:40:42;;;;;;;63.80;49.10;;;;;;;1.49;100.00;98527.31;108316;1256;1002177;-76
2024/02/22 00:43:08;;;;;;;63.80;49.30;;;;;;;1.50;100.00;98525.70;109114;1256;59853;-75
2024/02/22 00:45:35;;;;;;;61.70;49.20;;;;;;;1.50;100.00;98518.02;109091;1256;66781;-76
2024/02/22 00:48:02;;;;;;;61.80;48.20;;;;;;;1.51;100.00;98510.09;109084;1256;60136;-76
2024/02/22 00:50:28;;;;;;;60.20;46.70;;;;;;;1.51;100.00;98503.27;109131;1256;65081;-77
2024/02/22 00:52:58;;;;;;;58.70;45.40;;;;;;;1.50;100.00;98495.10;109118;1256;59937;-76
2024/02/22 00:55:24;;;;;;;56.50;45.30;;;;;;;1.47;100.00;98493.28;109140;1256;59798;-77
2024/02/22 00:57:51;;;;;;;58.00;44.80;;;;;;;1.43;100.00;98495.00;109069;1256;66819;-76
2024/02/22 01:00:18;;;;;;;60.40;45.90;;;;;;;1.40;100.00;98493.73;108926;1256;61154;-76
2024/02/22 01:02:45;;;;;;;66.30;48.10;;;;;;;1.39;100.00;98493.78;109115;1256;65025;-75
2024/02/22 01:05:11;;;;;;;64.10;50.10;;;;;;;1.37;100.00;98486.48;109088;1256;60032;-76
2024/02/22 01:07:38;;;;;;;60.60;47.60;;;;;;;1.39;100.00;98477.82;109093;1256;60042;-77
2024/02/22 01:10:06;;;;;;;71.00;53.30;;;;;;;1.43;100.00;98470.86;109109;1256;66621;-76
2024/02/22 01:12:35;;;;;;;63.40;47.90;;;;;;;1.47;100.00;98467.20;109155;1256;60031;-75
2024/02/22 01:15:02;;;;;;;69.80;53.30;;;;;;;1.48;100.00;98462.23;109090;1256;65018;-77
2024/02/22 01:17:29;;;;;;;70.00;53.10;;;;;;;1.49;100.00;98450.31;109105;1256;59850;-76
2024/02/22 01:19:55;;;;;;;61.90;49.00;;;;;;;1.46;100.00;98443.60;109127;1256;59823;-76
2024/02/22 01:22:22;;;;;;;63.30;48.40;;;;;;;1.44;100.00;98444.02;109097;1256;66871;-75
2024/02/22 01:24:49;;;;;;;64.70;50.50;;;;;;;1.44;100.00;98441.58;108964;1256;60790;-76
2024/02/22 01:27:15;;;;;;;62.40;49.10;;;;;;;1.43;100.00;98438.84;109046;1256;65046;-76
2024/02/22 01:29:42;;;;;;;62.10;47.50;;;;;;;1.41;100.00;98430.31;108949;1256;59806;-76
2024/02/22 01:32:09;;;;;;;63.00;47.60;;;;;;;1.42;100.00;98423.79;109134;1256;60273;-77
2024/02/22 01:34:36;;;;;;;65.80;51.20;;;;;;;1.45;100.00;98421.60;109084;1256;68096;-76
2024/02/22 01:37:03;;;;;;;67.70;51.20;;;;;;;1.45;100.00;98418.95;109139;1256;61047;-76
2024/02/22 01:39:29;;;;;;;65.10;49.50;;;;;;;1.48;100.00;98415.14;109127;1256;63991;-75
2024/02/22 01:41:56;;;;;;;64.40;49.70;;;;;;;1.51;100.00;98409.44;109126;1256;59883;-76
2024/02/22 01:44:28;;;;;;;60.50;47.60;;;;;;;1.52;100.00;98404.14;109162;1256;60011;-76
2024/02/22 01:46:55;;;;;;;62.30;48.10;;;;;;;1.52;100.00;98403.24;109125;1256;69036;-76
2024/02/22 01:49:23;;;;;;;60.00;47.30;;;;;;;1.52;100.00;98399.23;109086;1257;61568;-76
2024/02/22 01:51:57;;;;;;;59.40;47.30;;;;;;;1.51;100.00;98390.88;108331;1256;1002281;-76
2024/02/22 01:54:25;;;;;;;59.30;47.00;;;;;;;1.50;100.00;98388.82;109088;1256;59736;-77
2024/02/22 01:56:52;;;;;;;62.90;50.30;;;;;;;1.50;100.00;98383.39;109146;1256;59831;-76
2024/02/22 01:59:19;;;;;;;60.80;49.50;;;;;;;1.51;100.00;98378.27;109128;1256;68205;-77
2024/02/22 02:01:50;;;;;;;60.30;49.10;;;;;;;1.52;100.00;98374.21;108931;1256;60804;-76
2024/02/22 02:04:17;;;;;;;60.50;47.40;;;;;;;1.52;100.00;98372.30;109094;1256;65206;-75
2024/02/22 02:06:44;;;;;;;62.10;49.50;;;;;;;1.54;100.00;98368.54;109095;1256;59785;-76
2024/02/22 02:09:13;;;;;;;56.00;42.70;;;;;;;1.52;100.00;98364.23;109123;1256;59894;-75
2024/02/22 02:11:41;;;;;;;64.50;50.50;;;;;;;1.57;100.00;98360.02;108892;1256;66776;-76
2024/02/22 02:14:08;;;;;;;63.80;49.60;;;;;;;1.57;100.00;98351.43;109002;1256;61166;-76
2024/02/22 02:16:34;;;;;;;63.50;50.20;;;;;;;1.56;100.00;98343.08;109119;1256;65114;-75
2024/02/22 02:19:07;;;;;;;66.80;50.60;;;;;;;1.57;100.00;98341.66;109088;1256;59772;-76
2024/02/22 02:22:07;;;;;;;63.70;50.10;;;;;;;1.57;100.00;98333.59;108986;1256;60047;-75
2024/02/22 02:25:04;;;;;;;64.70;52.60;;;;;;;1.55;100.00;98331.73;108785;1263;67882;-76
2024/02/22 02:27:31;;;;;;;61.70;46.20;;;;;;;1.56;100.00;98324.70;108525;1267;61273;-76
2024/02/22 02:29:57;;;;;;;63.00;49.20;;;;;;;1.63;100.00;98320.92;108348;1267;63270;-76
2024/02/22 02:32:24;;;;;;;61.70;49.30;;;;;;;1.67;100.00;98317.77;108517;1267;60167;-76
2024/02/22 02:34:50;;;;;;;68.60;59.80;;;;;;;1.71;100.00;98313.23;108532;1267;60208;-75
2024/02/22 02:37:17;;;;;;;65.20;56.00;;;;;;;1.73;100.00;98305.74;108536;1268;66852;-76
2024/02/22 02:39:44;;;;;;;69.50;57.00;;;;;;;1.78;100.00;98308.37;108183;1267;61027;-77
2024/02/22 02:42:10;;;;;;;65.10;55.60;;;;;;;1.81;100.00;98308.06;108468;1267;65073;-76
2024/02/22 02:44:37;;;;;;;64.10;56.70;;;;;;;1.82;100.00;98300.83;108496;1267;60247;-76
2024/02/22 02:47:06;;;;;;;60.80;51.50;;;;;;;1.84;100.00;98297.08;108510;1267;59899;-76
2024/02/22 02:49:33;;;;;;;63.10;52.50;;;;;;;1.84;100.00;98296.71;108502;1267;66796;-75
2024/02/22 02:52:00;;;;;;;62.10;52.10;;;;;;;1.84;100.00;98289.20;108504;1267;60085;-76
2024/02/22 02:54:26;;;;;;;66.30;57.30;;;;;;;1.86;100.00;98287.52;108486;1267;65352;-76
2024/02/22 02:56:53;;;;;;;59.60;51.80;;;;;;;1.89;100.00;98283.20;108499;1267;59898;-76
2024/02/22 02:59:20;;;;;;;61.60;51.00;;;;;;;1.94;100.00;98279.31;108511;1267;59829;-76
2024/02/22 03:01:47;;;;;;;61.50;50.70;;;;;;;1.96;100.00;98284.11;108588;1263;67706;-76
2024/02/22 03:04:16;;;;;;;58.60;48.50;;;;;;;1.95;100.00;98279.61;107915;1256;1002418;-77
2024/02/22 03:06:43;;;;;;;54.30;44.60;;;;;;;1.98;100.00;98272.11;109085;1256;65650;-77
2024/02/22 03:09:10;;;;;;;60.00;49.00;;;;;;;2.06;100.00;98268.44;109087;1256;59949;-76
2024/02/22 03:11:37;;;;;;;50.50;42.10;;;;;;;2.12;100.00;98263.25;108382;1256;1002207;-75
2024/02/22 03:14:03;;;;;;;56.70;48.80;;;;;;;2.15;100.00;98264.17;109142;1256;75155;-76
2024/02/22 03:16:30;;;;;;;52.10;44.50;;;;;;;2.17;100.00;98259.55;109156;1256;60199;-75
2024/02/22 03:18:57;;;;;;;59.30;48.20;;;;;;;2.18;100.00;98259.64;109110;1256;65137;-75
2024/02/22 03:21:24;;;;;;;55.50;49.40;;;;;;;2.18;100.00;98252.98;109099;1257;59745;-75
2024/02/22 03:23:50;;;;;;;53.50;46.70;;;;;;;2.19;100.00;98254.36;109119;1256;59823;-76
2024/02/22 03:26:17;;;;;;;52.90;43.80;;;;;;;2.18;100.00;98254.57;109101;1256;67952;-76
2024/02/22 03:28:45;;;;;;;49.70;43.20;;;;;;;2.20;100.00;98249.21;108958;1256;61033;-77
2024/02/22 03:31:11;;;;;;;55.80;44.10;;;;;;;2.25;100.00;98247.46;109135;1256;64075;-76
2024/02/22 03:33:41;;;;;;;52.90;45.90;;;;;;;2.30;100.00;98246.18;109100;1256;60001;-76
2024/02/22 03:36:10;;;;;;;53.00;43.90;;;;;;;2.34;100.00;98239.48;109128;1257;59754;-76
2024/02/22 03:38:37;;;;;;;53.20;42.80;;;;;;;2.39;100.00;98234.52;108370;1256;1002476;-75
2024/02/22 03:41:04;;;;;;;53.40;43.10;;;;;;;2.43;100.00;98235.03;108975;1256;60276;-75
2024/02/22 03:43:31;;;;;;;50.50;44.80;;;;;;;2.47;100.00;98231.02;108859;1256;65022;-76
2024/02/22 03:45:58;;;;;;;49.80;42.30;;;;;;;2.50;100.00;98225.95;108928;1256;59836;-76
2024/02/22 03:48:26;;;;;;;55.80;47.20;;;;;;;2.54;100.00;98220.86;109151;1256;60015;-76
2024/02/22 03:50:52;;;;;;;55.40;46.90;;;;;;;2.57;100.00;98219.16;109111;1257;66947;-75
2024/02/22 03:53:19;;;;;;;51.20;43.60;;;;;;;2.59;100.00;98220.43;109131;1256;60811;-77
2024/02/22 03:55:45;;;;;;;56.20;47.80;;;;;;;2.61;100.00;98213.33;109129;1256;64027;-77
2024/02/22 03:58:12;;;;;;;55.40;45.00;;;;;;;2.62;100.00;98208.00;109130;1256;59771;-76
2024/02/22 04:00:39;;;;;;;54.50;44.50;;;;;;;2.64;100.00;98205.64;109127;1256;59867;-77
2024/02/22 04:03:05;;;;;;;63.00;51.60;;;;;;;2.65;100.00;98205.27;109131;1256;67968;-76
2024/02/22 04:05:32;;;;;;;65.70;53.70;;;;;;;2.65;100.00;98200.54;109126;1256;61409;-75
2024/02/22 04:07:59;;;;;;;64.80;53.70;;;;;;;2.64;100.00;98201.28;109088;1256;64157;-76
2024/02/22 04:10:26;;;;;;;64.80;53.40;;;;;;;2.61;100.00;98207.38;108959;1256;59802;-75
2024/02/22 04:12:52;;;;;;;63.90;54.30;;;;;;;2.61;100.00;98206.50;109116;1256;59792;-75
2024/02/22 04:15:20;;;;;;;62.00;51.20;;;;;;;2.62;100.00;98207.34;108978;1256;67810;-76
2024/02/22 04:17:47;;;;;;;61.70;50.40;;;;;;;2.62;100.00;98203.83;109117;1256;61267;-77
2024/02/22 04:20:14;;;;;;;63.20;52.40;;;;;;;2.61;100.00;98203.48;109127;1256;63881;-75
2024/02/22 04:22:48;;;;;;;59.80;49.50;;;;;;;2.61;100.00;98202.10;109088;1256;60085;-75
2024/02/22 04:25:15;;;;;;;55.10;48.20;;;;;;;2.63;100.00;98203.79;108334;1256;1002387;-76
2024/02/22 04:27:42;;;;;;;56.20;45.90;;;;;;;2.66;100.00;98198.58;109120;1256;67008;-75
2024/02/22 04:30:12;;;;;;;56.50;47.70;;;;;;;2.68;100.00;98192.84;109121;1256;59989;-76
2024/02/22 04:32:39;;;;;;;54.80;46.40;;;;;;;2.70;100.00;98192.91;109137;1256;65065;-76
2024/02/22 04:35:07;;;;;;;57.00;44.90;;;;;;;2.71;100.00;98190.94;109075;1256;59868;-76
2024/02/22 04:37:33;;;;;;;50.40;43.20;;;;;;;2.70;100.00;98188.17;108946;1256;60079;-75
2024/02/22 04:40:00;;;;;;;47.20;42.00;;;;;;;2.71;100.00;98186.92;109093;1256;66865;-75
2024/02/22 04:42:27;;;;;;;54.40;45.80;;;;;;;2.71;100.00;98182.91;109141;1256;61100;-74
2024/02/22 04:44:53;;;;;;;55.50;46.10;;;;;;;2.70;100.00;98178.00;109101;1256;65124;-76
2024/02/22 04:47:20;;;;;;;56.40;46.90;;;;;;;2.71;100.00;98173.41;109183;1256;59835;-77
2024/02/22 04:49:48;;;;;;;58.10;47.00;;;;;;;2.72;100.00;98171.40;109192;1256;59710;-75
2024/02/22 04:52:14;;;;;;;55.80;48.70;;;;;;;2.75;100.00;98169.89;109023;1256;68223;-76
2024/02/22 04:54:41;;;;;;;60.20;46.80;;;;;;;2.77;100.00;98164.00;109134;1256;61228;-76
2024/02/22 04:57:07;;;;;;;60.20;50.00;;;;;;;2.80;100.00;98159.13;109110;1256;65034;-76
2024/02/22 04:59:34;;;;;;;63.00;55.10;;;;;;;2.82;100.00;98158.30;108324;1256;1003044;-74
2024/02/22 05:02:01;;;;;;;58.10;50.10;;;;;;;2.86;100.00;98154.45;109153;1256;59854;-76
2024/02/22 05:04:27;;;;;;;58.40;50.00;;;;;;;2.90;100.00;98149.16;108985;1255;60370;-75
2024/02/22 05:06:54;;;;;;;60.80;48.90;;;;;;;2.94;100.00;98150.89;109166;1256;59799;-75
2024/02/22 05:09:21;;;;;;;55.30;46.30;;;;;;;2.96;100.00;98150.24;108976;1256;65180;-76
2024/02/22 05:11:48;;;;;;;60.40;48.30;;;;;;;2.97;100.00;98147.56;109177;1256;59851;-76
2024/02/22 05:14:15;;;;;;;57.80;48.40;;;;;;;3.00;100.00;98141.79;108836;1260;59939;-76
2024/02/22 05:16:41;;;;;;;54.10;46.90;;;;;;;3.02;100.00;98144.67;109171;1256;65710;-76
2024/02/22 05:19:08;;;;;;;54.80;45.20;;;;;;;3.03;100.00;98144.97;109162;1256;60045;-76
2024/02/22 05:21:35;;;;;;;56.00;49.90;;;;;;;3.03;100.00;98141.11;109185;1256;65047;-76
2024/02/22 05:24:01;;;;;;;58.00;51.60;;;;;;;3.03;100.00;98145.35;109155;1259;60002;-76
2024/02/22 05:26:28;;;;;;;57.20;48.10;;;;;;;3.02;100.00;98144.48;108428;1256;1002469;-76
2024/02/22 05:28:55;;;;;;;55.40;44.60;;;;;;;3.06;100.00;98145.17;109198;1256;67045;-77
2024/02/22 05:31:28;;;;;;;58.00;47.50;;;;;;;3.12;100.00;98148.25;109229;1256;60063;-77
2024/02/22 05:33:55;;;;;;;51.50;42.60;;;;;;;3.16;100.00;98150.47;109202;1256;64915;-77
2024/02/22 05:36:22;;;;;;;52.60;44.90;;;;;;;3.23;100.00;98150.86;109201;1256;60085;-77
2024/02/22 05:38:49;;;;;;;52.80;44.00;;;;;;;3.27;100.00;98143.78;109203;1256;59667;-76
2024/02/22 05:41:16;;;;;;;53.60;43.20;;;;;;;3.31;100.00;98141.83;109159;1256;67065;-76
2024/02/22 05:43:43;;;;;;;50.80;45.30;;;;;;;3.34;100.00;98139.05;109184;1256;61980;-75
2024/02/22 05:46:09;;;;;;;52.20;43.80;;;;;;;3.37;100.00;98129.58;109162;1256;64081;-76
2024/02/22 05:48:36;;;;;;;56.10;45.40;;;;;;;3.40;100.00;98125.05;109233;1256;59772;-76
2024/02/22 05:51:03;;;;;;;52.00;45.70;;;;;;;3.42;100.00;98129.14;109070;1255;59811;-75
2024/02/22 05:53:30;;;;;;;52.50;43.50;;;;;;;3.45;100.00;98125.81;109249;1256;67828;-76
2024/02/22 05:55:56;;;;;;;49.60;43.10;;;;;;;3.48;100.00;98122.17;109157;1256;61042;-76
2024/02/22 05:58:23;;;;;;;50.90;44.10;;;;;;;3.50;100.00;98118.34;109146;1256;65319;-77
2024/02/22 06:00:50;;;;;;;52.40;43.70;;;;;;;3.54;100.00;98116.96;109162;1256;60655;-75
2024/02/22 06:03:16;;;;;;;53.60;48.00;;;;;;;3.56;100.00;98117.85;108942;1260;60073;-76
2024/02/22 06:05:43;;;;;;;57.30;49.70;;;;;;;3.60;100.00;98116.80;109153;1256;66548;-76
2024/02/22 06:08:11;;;;;;;55.20;49.30;;;;;;;3.63;100.00;98111.35;108973;1256;61099;-75
2024/02/22 06:10:38;;;;;;;54.80;48.90;;;;;;;3.66;100.00;98108.38;109172;1256;65105;-77
2024/02/22 06:13:04;;;;;;;53.20;45.70;;;;;;;3.68;100.00;98105.61;109188;1256;59841;-76
2024/02/22 06:15:31;;;;;;;50.90;45.10;;;;;;;3.71;100.00;98103.70;108417;1257;1002803;-75
2024/02/22 06:17:58;;;;;;;51.10;45.00;;;;;;;3.75;100.00;98100.38;109224;1256;67810;-75
2024/02/22 06:20:24;;;;;;;47.00;41.70;;;;;;;3.76;100.00;98101.17;109157;1256;60070;-76
2024/02/22 06:22:52;;;;;;;45.40;39.60;;;;;;;3.77;100.00;98098.34;108948;1256;65056;-75
2024/02/22 06:25:19;;;;;;;50.00;40.10;;;;;;;3.78;100.00;98097.20;108961;1256;59899;-75
2024/02/22 06:27:46;;;;;;;46.90;41.70;;;;;;;3.82;100.00;98096.48;109155;1256;59864;-75
2024/02/22 06:30:14;;;;;;;46.30;40.40;;;;;;;3.85;100.00;98084.89;109115;1255;66639;-76
2024/02/22 06:32:41;;;;;;;42.30;37.50;;;;;;;3.88;100.00;98079.66;109182;1256;59945;-76
2024/02/22 06:35:08;;;;;;;44.70;38.50;;;;;;;3.91;100.00;98075.60;109140;1256;65155;-75
2024/02/22 06:37:35;;;;;;;51.30;44.10;;;;;;;3.92;100.00;98073.79;109144;1260;59742;-75
2024/02/22 06:40:07;;;;;;;46.20;39.10;;;;;;;3.96;100.00;98067.40;109142;1256;59659;-77
2024/02/22 06:42:34;;;;;;;46.90;40.70;;;;;;;4.06;100.00;98067.23;109122;1260;67852;-76
2024/02/22 06:45:00;;;;;;;45.40;39.60;;;;;;;4.15;100.00;98063.34;109113;1256;61843;-77
2024/02/22 06:47:28;;;;;;;43.30;38.80;;;;;;;4.25;100.00;98067.02;109119;1257;64123;-76
2024/02/22 06:49:55;;;;;;;43.40;38.90;;;;;;;4.35;100.00;98061.86;109138;1256;59904;-76
2024/02/22 06:52:22;;;;;;;45.20;38.10;;;;;;;4.46;100.00;98053.36;109113;1256;60327;-76
2024/02/22 06:54:50;;;;;;;42.90;38.30;;;;;;;4.57;100.00;98043.77;109109;1258;66514;-76
2024/02/22 06:57:17;;;;;;;37.80;33.80;;;;;;;4.68;100.00;98038.89;109107;1256;60063;-76
2024/02/22 06:59:44;;;;;;;40.90;35.70;;;;;;;4.80;100.00;98037.33;109085;1258;64179;-76
2024/02/22 07:02:15;;;;;;;42.70;36.00;;;;;;;4.92;100.00;98032.55;109093;1257;59879;-76
2024/02/22 07:04:43;;;;;;;34.40;29.80;;;;;;;5.03;100.00;98027.67;109129;1256;59823;-77
2024/02/22 07:07:09;;;;;;;35.70;30.50;;;;;;;5.14;100.00;98021.39;108943;1262;66857;-76
2024/02/22 07:09:36;;;;;;;36.80;32.60;;;;;;;5.26;100.00;98021.38;109097;1257;60126;-76
2024/02/22 07:12:03;;;;;;;35.40;31.60;;;;;;;5.36;100.00;98020.21;109073;1258;64049;-76
2024/02/22 07:14:30;;;;;;;38.30;33.30;;;;;;;5.43;100.00;98018.20;109044;1260;59872;-76
2024/02/22 07:16:56;;;;;;;35.20;30.10;;;;;;;5.50;100.00;98017.98;109069;1257;59702;-75
2024/02/22 07:19:23;;;;;;;31.80;28.40;;;;;;;5.58;100.00;98010.58;108976;1256;66747;-76
2024/02/22 07:21:50;;;;;;;31.80;25.90;;;;;;;5.65;100.00;98004.50;109114;1257;61069;-76
2024/02/22 07:24:17;;;;;;;33.20;29.70;;;;;;;5.73;100.00;98005.41;108913;1259;62840;-77
2024/02/22 07:26:46;;;;;;;33.10;29.70;;;;;;;5.82;100.00;98004.12;109084;1256;59893;-76
2024/02/22 07:29:12;;;;;;;40.90;35.60;;;;;;;5.89;100.00;97996.79;109103;1256;59864;-76
2024/02/22 07:31:39;;;;;;;40.10;34.20;;;;;;;5.96;100.00;97997.61;109088;1256;67897;-76
2024/02/22 07:34:05;;;;;;;38.50;33.60;;;;;;;6.05;100.00;97998.13;108995;1257;60118;-77
2024/02/22 07:36:32;;;;;;;38.70;34.30;;;;;;;6.12;100.00;97999.09;109113;1257;64104;-77
2024/02/22 07:39:01;;;;;;;37.90;32.50;;;;;;;6.17;100.00;97992.40;109082;1258;59762;-77
2024/02/22 07:41:28;;;;;;;37.10;33.00;;;;;;;6.24;100.00;97992.63;108999;1256;59932;-76
2024/02/22 07:43:56;;;;;;;39.00;34.30;;;;;;;6.31;100.00;97991.11;109116;1257;65622;-76
2024/02/22 07:46:22;;;;;;;42.10;35.00;;;;;;;6.38;100.00;97987.47;109113;1260;61017;-77
2024/02/22 07:48:49;;;;;;;38.20;31.00;;;;;;;6.49;100.00;97985.68;109071;1257;65156;-75
2024/02/22 07:51:16;;;;;;;33.20;29.50;;;;;;;6.65;100.00;97979.38;109086;1257;59815;-76
2024/02/22 07:53:43;;;;;;;25.70;22.00;;;;;;;6.82;100.00;97969.71;109094;1257;59972;-76
2024/02/22 07:56:11;;;;;;;32.70;27.70;;;;;;;6.99;100.00;97967.31;109089;1257;66885;-75
2024/02/22 07:58:51;;;;;;;32.10;28.70;;;;;;;7.17;100.00;97964.84;109119;1258;60164;-77
2024/02/22 08:01:18;;;;;;;28.40;23.10;;;;;;;7.35;100.00;97962.34;108953;1257;65007;-77
2024/02/22 08:03:45;;;;;;;23.80;20.10;;;;;;;7.52;100.00;97955.30;109070;1257;59906;-76
2024/02/22 08:06:12;;;;;;;20.20;15.80;;;;;;;7.70;100.00;97948.23;109154;1256;59880;-76
2024/02/22 08:08:40;;;;;;;16.10;13.00;;;;;;;7.87;100.00;97941.45;109094;1257;67691;-77
2024/02/22 08:11:07;;;;;;;16.70;13.10;;;;;;;8.08;100.00;97938.91;109019;1257;60028;-76
2024/02/22 08:13:34;;;;;;;15.30;8.60;;;;;;;8.31;100.00;97940.92;109112;1256;65100;-76
2024/02/22 08:16:08;;;;;;;53.00;47.20;;;;;;;8.51;100.00;97937.16;109074;1256;59846;-76
2024/02/22 08:18:36;;;;;;;41.20;34.00;;;;;;;8.68;100.00;97937.44;108974;1256;59797;-76
2024/02/22 08:21:05;;;;;;;25.50;21.50;;;;;;;8.85;100.00;97934.93;109096;1257;67930;-76
2024/02/22 08:23:32;;;;;;;26.90;21.20;;;;;;;9.02;100.00;97934.50;108934;1257;61111;-76
2024/02/22 08:25:59;;;;;;;26.30;23.10;;;;;;;9.19;100.00;97931.55;109106;1257;64010;-76
2024/02/22 08:28:27;;;;;;;31.30;24.10;;;;;;;9.31;100.00;97926.56;109038;1258;59715;-72
2024/02/22 08:30:54;;;;;;;79.00;49.50;;;;;;;9.39;100.00;97924.66;109098;1256;59760;-75
2024/02/22 08:33:25;;;;;;;72.60;46.80;;;;;;;9.44;100.00;97924.58;109079;1257;67893;-75
2024/02/22 08:35:54;;;;;;;75.20;51.20;;;;;;;9.51;100.00;97919.13;109097;1256;60085;-76
2024/02/22 08:38:21;;;;;;;102.40;68.10;;;;;;;9.59;100.00;97922.39;109055;1257;65522;-76
2024/02/22 08:40:47;;;;;;;100.70;65.30;;;;;;;9.69;100.00;97922.23;109076;1257;60091;-75
2024/02/22 08:43:14;;;;;;;68.80;45.40;;;;;;;9.84;100.00;97919.30;108987;1256;59931;-76
2024/02/22 08:45:41;;;;;;;58.50;37.90;;;;;;;10.02;100.00;97912.00;109097;1257;67895;-75
2024/02/22 08:48:08;;;;;;;42.30;29.70;;;;;;;10.20;100.00;97909.75;109120;1256;60193;-76
2024/02/22 08:50:35;;;;;;;34.90;25.40;;;;;;;10.38;100.00;97906.67;109048;1257;65105;-75
2024/02/22 08:53:02;;;;;;;33.90;26.80;;;;;;;10.57;100.00;97899.77;109077;1256;59928;-76
2024/02/22 08:55:29;;;;;;;18.20;14.40;;;;;;;10.76;100.00;97893.06;109083;1257;59851;-76
2024/02/22 08:57:56;;;;;;;15.90;11.60;;;;;;;10.90;100.00;97890.59;109092;1257;67846;-75
2024/02/22 09:00:22;;;;;;;13.30;11.10;;;;;;;11.04;100.00;97886.75;109093;1257;61024;-76
2024/02/22 09:02:51;;;;;;;11.50;7.90;;;;;;;11.12;100.00;97884.02;109082;1257;65327;-76
2024/02/22 09:05:19;;;;;;;10.80;8.80;;;;;;;11.22;100.00;97879.29;109096;1256;60068;-76
2024/02/22 09:07:47;;;;;;;9.10;6.80;;;;;;;11.32;100.00;97872.92;109076;1256;59728;-76
2024/02/22 09:10:15;;;;;;;9.70;6.40;;;;;;;11.39;100.00;97872.47;109127;1257;66834;-76
2024/02/22 09:12:43;;;;;;;7.70;6.50;;;;;;;11.47;100.00;97870.50;109121;1257;61143;-74
2024/02/22 09:15:11;;;;;;;10.70;6.80;;;;;;;11.62;100.00;97861.35;109071;1256;65061;-75
2024/02/22 09:17:38;;;;;;;9.30;6.20;;;;;;;11.75;100.00;97856.41;109082;1256;59911;-75
2024/02/22 09:20:05;;;;;;;11.60;6.20;;;;;;;11.85;100.00;97851.64;109015;1257;59769;-76
2024/02/22 09:22:32;;;;;;;12.00;6.30;;;;;;;11.94;100.00;97847.44;108995;1256;66695;-76
2024/02/22 09:24:59;;;;;;;16.80;7.80;;;;;;;12.07;100.00;97840.62;109071;1256;60100;-75
2024/02/22 09:27:26;;;;;;;7.60;5.70;;;;;;;12.16;100.00;97831.17;109052;1256;64804;-75
2024/02/22 09:29:53;;;;;;;7.30;5.90;;;;;;;12.21;100.00;97828.64;109067;1257;59914;-76
2024/02/22 09:32:20;;;;;;;8.40;4.90;;;;;;;12.27;100.00;97825.36;109106;1256;60188;-74
2024/02/22 09:34:47;;;;;;;6.10;4.40;;;;;;;12.37;100.00;97820.58;109073;1257;66904;-74
2024/02/22 09:37:14;;;;;;;4.50;3.70;;;;;;;12.47;100.00;97818.33;109063;1256;60989;-75
2024/02/22 09:39:40;;;;;;;7.00;4.10;;;;;;;12.59;100.00;97817.39;109084;1256;64019;-75
2024/02/22 09:42:07;;;;;;;5.20;3.00;;;;;;;12.71;100.00;97813.77;109057;1256;60594;-76
2024/02/22 09:44:34;;;;;;;5.60;3.00;;;;;;;12.82;100.00;97810.56;109120;1256;59733;-75
2024/02/22 09:47:02;;;;;;;4.90;3.20;;;;;;;12.92;100.00;97805.15;109098;1257;67861;-75
2024/02/22 09:49:30;;;;;;;3.50;3.00;;;;;;;13.02;100.00;97803.01;109079;1257;61117;-76
2024/02/22 09:51:56;;;;;;;4.00;3.30;;;;;;;13.09;100.00;97800.76;109084;1256;65155;-75
2024/02/22 09:54:23;;;;;;;4.50;2.80;;;;;;;13.10;100.00;97797.36;109066;1256;59770;-75
2024/02/22 09:56:50;;;;;;;5.10;3.10;;;;;;;13.12;100.00;97796.69;109120;1256;59917;-76
2024/02/22 09:59:18;;;;;;;2.90;2.50;;;;;;;13.17;100.00;97796.57;109111;1256;67901;-75
2024/02/22 10:01:45;;;;;;;5.80;2.50;;;;;;;13.22;100.00;97796.80;109102;1256;60157;-75
2024/02/22 10:04:19;;;;;;;5.60;2.80;;;;;;;13.26;100.00;97796.41;109078;1256;65024;-76
2024/02/22 10:06:49;;;;;;;4.90;3.10;;;;;;;13.30;100.00;97797.07;109081;1256;59796;-76
2024/02/22 10:09:16;;;;;;;4.50;2.90;;;;;;;13.32;100.00;97790.81;108947;1258;59809;-75
2024/02/22 10:11:48;;;;;;;4.60;2.80;;;;;;;13.30;100.00;97787.33;109128;1256;67852;-76
2024/02/22 10:14:15;;;;;;;4.00;2.80;;;;;;;13.23;100.00;97782.77;109091;1256;60004;-76
2024/02/22 10:16:44;;;;;;;4.50;3.20;;;;;;;13.21;100.00;97775.15;109087;1256;65396;-76
2024/02/22 10:19:15;;;;;;;4.50;3.00;;;;;;;13.26;100.00;97769.88;109097;1256;59771;-76
2024/02/22 10:21:43;;;;;;;4.70;3.40;;;;;;;13.34;100.00;97770.70;109132;1256;59795;-76
2024/02/22 10:24:10;;;;;;;4.60;2.80;;;;;;;13.40;100.00;97767.58;109096;1256;67774;-76
2024/02/22 10:26:37;;;;;;;6.50;3.00;;;;;;;13.40;100.00;97761.69;109089;1257;60241;-76
2024/02/22 10:29:07;;;;;;;4.20;2.80;;;;;;;13.39;100.00;97755.70;109101;1257;63949;-76
2024/02/22 10:31:40;;;;;;;3.20;2.30;;;;;;;13.44;100.00;97749.02;108990;1256;59862;-76
2024/02/22 10:34:08;;;;;;;4.50;3.20;;;;;;;13.51;100.00;97743.81;109030;1256;59850;-76
2024/02/22 10:36:36;;;;;;;4.80;2.50;;;;;;;13.61;100.00;97736.24;109113;1256;67805;-76
2024/02/22 10:39:03;;;;;;;4.00;2.50;;;;;;;13.74;100.00;97734.77;109122;1256;61266;-75
2024/02/22 10:41:30;;;;;;;3.30;2.90;;;;;;;13.81;100.00;97729.95;109080;1256;65088;-75
2024/02/22 10:43:59;;;;;;;5.40;2.90;;;;;;;13.87;100.00;97726.73;109086;1257;59706;-76
2024/02/22 10:46:28;;;;;;;3.20;2.80;;;;;;;13.91;100.00;97723.31;109164;1256;59935;-75
2024/02/22 10:48:59;;;;;;;4.70;3.00;;;;;;;14.00;100.00;97713.58;109107;1256;66722;-75
2024/02/22 10:51:28;;;;;;;5.70;2.60;;;;;;;14.12;100.00;97707.61;108991;1256;60331;-76
2024/02/22 10:53:56;;;;;;;6.90;3.70;;;;;;;14.16;100.00;97705.56;109069;1256;64401;-75
2024/02/22 10:56:24;;;;;;;6.90;3.30;;;;;;;14.10;100.00;97708.09;109063;1256;59826;-76
2024/02/22 10:59:05;;;;;;;6.80;3.80;;;;;;;14.03;100.00;97710.76;109089;1256;59766;-76
2024/02/22 11:01:33;;;;;;;5.40;4.00;;;;;;;14.06;100.00;97701.89;109107;1256;67860;-75
2024/02/22 11:04:02;;;;;;;5.60;4.40;;;;;;;14.12;100.00;97696.69;108965;1257;69099;-74
2024/02/22 11:06:38;;;;;;;6.60;4.70;;;;;;;14.11;100.00;97691.92;109081;1256;64175;-76
2024/02/22 11:09:16;;;;;;;7.70;5.00;;;;;;;14.06;100.00;97692.44;109118;1256;60091;-77
2024/02/22 11:11:43;;;;;;;7.10;4.90;;;;;;;13.95;100.00;97690.35;108913;1256;59967;-76